METAR AND TAF INFORMATION
METAR FOR EKYT
ADDS - METARS form results

(0439 UTC 12 September 2022)
Data provider http://aviationweather.gov/metar/data/
 
METAR text: EKYT 120433Z AUTO 08003KT 0150 R08L/0400N R26R/0325N FG NCD 08/08 Q1015
Conditions at: EKYT (ALBORG , DK) observed 0433 UTC 12 September 2022
Temperature: 8.0°C (46°F)
Dewpoint: 8.0°C (46°F) [RH = 100%]
Pressure (altimeter): 29.97 inches Hg (1015.0 mb)
Winds: from the E (80 degrees) at 3 MPH (3 knots; 1.5 m/s)
Visibility: 0.09 miles (0.14 km)
Ceiling: at least 12,000 feet AGL
Clouds: sky clear below 12,000 feet AGL
Weather: FG  (fog)

METAR text: EKYT 120432Z AUTO 08003KT 0150 R08L/0300N R26R/0325N FG NCD 08/08 Q1015
Conditions at: EKYT (ALBORG , DK) observed 0432 UTC 12 September 2022
Temperature: 8.0°C (46°F)
Dewpoint: 8.0°C (46°F) [RH = 100%]
Pressure (altimeter): 29.97 inches Hg (1015.0 mb)
Winds: from the E (80 degrees) at 3 MPH (3 knots; 1.5 m/s)
Visibility: 0.09 miles (0.14 km)
Ceiling: at least 12,000 feet AGL
Clouds: sky clear below 12,000 feet AGL
Weather: FG  (fog)

METAR text: EKYT 120420Z AUTO 06002KT 0050 R08L/0250D R26R/0325N FG NCD 08/08 Q1016
Conditions at: EKYT (ALBORG , DK) observed 0420 UTC 12 September 2022
Temperature: 8.0°C (46°F)
Dewpoint: 8.0°C (46°F) [RH = 100%]
Pressure (altimeter): 30.00 inches Hg (1016.0 mb)
Winds: from the ENE (60 degrees) at 2 MPH (2 knots; 1.0 m/s)
Visibility: 0.03 miles (0.05 km)
Ceiling: at least 12,000 feet AGL
Clouds: sky clear below 12,000 feet AGL
Weather: FG  (fog)

METAR text: EKYT 120419Z AUTO 06002KT 0050 R08L/0250D R26R/0325N FG NCD 08/08 Q1016
Conditions at: EKYT (ALBORG , DK) observed 0419 UTC 12 September 2022
Temperature: 8.0°C (46°F)
Dewpoint: 8.0°C (46°F) [RH = 100%]
Pressure (altimeter): 30.00 inches Hg (1016.0 mb)
Winds: from the ENE (60 degrees) at 2 MPH (2 knots; 1.0 m/s)
Visibility: 0.03 miles (0.05 km)
Ceiling: at least 12,000 feet AGL
Clouds: sky clear below 12,000 feet AGL
Weather: FG  (fog)

METAR text: EKYT 120350Z AUTO 08001KT 0100 R08L/0400D R26R/0400N FG NCD 10/09 Q1016
Conditions at: EKYT (ALBORG , DK) observed 0350 UTC 12 September 2022
Temperature: 10.0°C (50°F)
Dewpoint: 9.0°C (48°F) [RH = 93%]
Pressure (altimeter): 30.00 inches Hg (1016.0 mb)
Winds: from the E (80 degrees) at 1 MPH (1 knots; 0.5 m/s)
Visibility: 0.06 miles (0.10 km)
Ceiling: at least 12,000 feet AGL
Clouds: sky clear below 12,000 feet AGL
Weather: FG  (fog)

Forecast for: EKYT (ALBORG , DK)
Text: TAF EKYT 120217Z 1203/1303 VRB04KT 0100 FG VV002
Forecast period: 0300 to 0600 UTC 12 September 2022
Forecast type: FROM: standard forecast or significant change
Winds: variable direction winds at 5 MPH (4 knots; 2.1 m/s)
Visibility: 0.06 miles (0.10 km)
Ceiling: indefinite ceiling with vertical visibility of 200 feet AGL
Clouds: obscured sky
Weather: FG  (fog)
Text: TEMPO 1203/1206 6000 NSW FEW002
Forecast period: 0300 to 0600 UTC 12 September 2022
Forecast type: TEMPORARY: The following changes expected for less than half the time period
Visibility: 4 miles (6 km)
Ceiling: at least 12,000 feet AGL
Clouds: few clouds at 200 feet AGL
Weather: NSW  (no significant weather)
Text: BECMG 1206/1208 18010KT 9999 NSW BKN100
Forecast period: 0600 UTC 12 September 2022 to 0300 UTC 13 September 2022
Forecast type: BECOMING: Conditions expected to become as follows by 0800 UTC 12 September 2022
Winds: from the S (180 degrees) at 12 MPH (10 knots; 5.1 m/s)
Visibility: 6 or more miles (10+ km)
Ceiling: 10000 feet AGL
Clouds: broken clouds at 10000 feet AGL
Weather: NSW  (no significant weather)
Text: TEMPO 1218/1221 6000 -RA
Forecast period: 1800 to 2100 UTC 12 September 2022
Forecast type: TEMPORARY: The following changes expected for less than half the time period
Visibility: 4 miles (6 km)
Ceiling: unknown
Clouds: missing
Weather: -RA  (light rain)
Text: TEMPO 1221/1303 17015G25KT 4000 RA BKN010
Forecast period: 2100 UTC 12 September 2022 to 0300 UTC 13 September 2022
Forecast type: TEMPORARY: The following changes expected for less than half the time period
Winds: from the S (170 degrees) at 17 MPH (15 knots; 7.7 m/s)
gusting to 29 MPH (25 knots; 12.9 m/s)
Visibility: 2.49 miles (4.01 km)
Ceiling: 1000 feet AGL
Clouds: broken clouds at 1000 feet AGL
Weather: RA  (moderate rain)

 AIRPORT MAP

 RUNWAY INFORMATION
Runway 08L Runway length 8707 ft Runway width 148 ft
Runway elevation 8 ft Runway displaced threshold 0 ft Runway heading 83
Runway 26R Runway length 8707 ft Runway width 148 ft
Runway elevation 10 ft Runway displaced threshold 0 ft Runway heading 263
Runway 08R Runway length 8363 ft Runway width 74 ft
Runway elevation 7 ft Runway displaced threshold 0 ft Runway heading 83
Runway 26L Runway length 8363 ft Runway width 74 ft
Runway elevation 10 ft Runway displaced threshold 0 ft Runway heading 263

 AIRPORT FREQUENCIES
Type APP Name APP Frequency 123.975 MHZ
Type ATIS Name ATIS Frequency 120.475 MHZ
Type MISC Name HANDLING Frequency 131.55 MHZ
Type TWR Name TWR Frequency 118.3 MHZ

 AIRPORT NEAR NAVIGATION AIDS
Type TACAN Name Aalborg Frequency 116700 KHZ
Type VOR-DME Name Aalborg Frequency 116700 KHZ
Type NDB Name Aalborg Frequency 398 KHZ



Powered by Virtual Airlines Manager [v2.6.2]